createdAt,value
2017-11-16T00:00:39.001Z,9.44
2017-11-16T00:01:42.835Z,9.35
2017-11-16T00:02:46.681Z,9.38
2017-11-16T00:03:50.463Z,9.35
2017-11-16T00:04:54.237Z,9.45
2017-11-16T00:05:59.151Z,9.48
2017-11-16T00:07:02.970Z,9.09
2017-11-16T00:08:07.251Z,8.94
2017-11-16T00:09:11.598Z,8.59
2017-11-16T00:10:15.384Z,8.51
2017-11-16T00:11:19.163Z,8.36
2017-11-16T00:12:23.246Z,8.43
2017-11-16T00:13:27.234Z,8.66
2017-11-16T00:14:31.083Z,8.93
2017-11-16T00:15:34.772Z,8.92
2017-11-16T00:16:38.463Z,8.62
2017-11-16T00:17:42.146Z,8.43
2017-11-16T00:18:46.150Z,8.29
2017-11-16T00:19:49.792Z,8.31
2017-11-16T00:20:53.501Z,8.41
2017-11-16T00:21:57.135Z,8.11
2017-11-16T00:23:00.805Z,8.16
2017-11-16T00:24:05.139Z,8.05
2017-11-16T00:25:09.078Z,8.15
2017-11-16T00:26:12.653Z,8.01
2017-11-16T00:27:16.182Z,8.15
2017-11-16T00:28:19.818Z,8.04
2017-11-16T00:29:23.518Z,8.06
2017-11-16T00:30:27.199Z,8.02
2017-11-16T00:31:31.108Z,7.99
2017-11-16T00:32:34.789Z,8.01
2017-11-16T00:33:38.456Z,7.91
2017-11-16T00:34:42.079Z,8.12
2017-11-16T00:35:45.764Z,7.98
2017-11-16T00:36:49.445Z,7.89
2017-11-16T00:37:53.371Z,7.94
2017-11-16T00:38:57.566Z,8.02
2017-11-16T00:40:01.257Z,8.11
2017-11-16T00:41:05.292Z,8.01
2017-11-16T00:42:09.012Z,8.27
2017-11-16T00:43:12.773Z,8.17
2017-11-16T00:44:17.029Z,8.41
2017-11-16T00:45:20.690Z,8.46
2017-11-16T00:46:24.349Z,8.62
2017-11-16T00:47:28.171Z,8.79
2017-11-16T00:48:31.946Z,8.67
2017-11-16T00:49:36.027Z,8.59
2017-11-16T00:50:39.780Z,8.78
2017-11-16T00:51:43.568Z,8.63
2017-11-16T00:52:47.355Z,8.75
2017-11-16T00:53:51.050Z,8.71
2017-11-16T00:54:54.726Z,8.63
2017-11-16T00:55:58.672Z,8.60
2017-11-16T00:57:02.392Z,8.80
2017-11-16T00:58:06.195Z,8.47
2017-11-16T00:59:09.939Z,8.54
2017-11-16T01:00:13.734Z,8.28
2017-11-16T01:01:17.496Z,8.33
2017-11-16T01:02:21.529Z,8.22
2017-11-16T01:03:25.347Z,8.21
2017-11-16T01:04:29.114Z,8.38
2017-11-16T01:05:32.872Z,8.33
2017-11-16T01:06:36.619Z,8.45
2017-11-16T01:07:40.409Z,8.41
2017-11-16T01:08:44.367Z,8.57
2017-11-16T01:09:48.080Z,8.44
2017-11-16T01:10:51.667Z,8.22
2017-11-16T01:11:55.212Z,8.02
2017-11-16T01:12:58.867Z,8.04
2017-11-16T01:14:02.456Z,8.19
2017-11-16T01:15:07.399Z,8.21
2017-11-16T01:16:11.270Z,8.30
2017-11-16T01:17:14.925Z,8.09
2017-11-16T01:18:18.508Z,7.96
2017-11-16T01:19:22.093Z,7.98
2017-11-16T01:20:25.638Z,8.08
2017-11-16T01:21:29.513Z,8.28
2017-11-16T01:22:33.110Z,8.30
2017-11-16T01:23:36.679Z,8.40
2017-11-16T01:24:40.255Z,8.23
2017-11-16T01:25:43.852Z,7.92
2017-11-16T01:26:47.420Z,8.21
2017-11-16T01:27:51.445Z,8.35
2017-11-16T01:28:55.116Z,8.19
2017-11-16T01:29:58.805Z,8.22
2017-11-16T01:31:02.522Z,8.42
2017-11-16T01:32:06.328Z,8.46
2017-11-16T01:33:10.002Z,8.05
2017-11-16T01:34:13.995Z,8.00
2017-11-16T01:35:17.788Z,7.97
2017-11-16T01:36:21.516Z,7.97
2017-11-16T01:37:25.344Z,7.96
2017-11-16T01:38:29.075Z,8.03
2017-11-16T01:39:32.895Z,8.01
2017-11-16T01:40:36.906Z,7.99
2017-11-16T01:41:40.567Z,7.81
2017-11-16T01:42:44.258Z,7.83
2017-11-16T01:43:47.923Z,7.84
2017-11-16T01:44:51.479Z,7.81
2017-11-16T01:45:55.108Z,7.87
2017-11-16T01:46:58.958Z,7.81
2017-11-16T01:48:02.531Z,7.73
2017-11-16T01:49:06.076Z,7.74
2017-11-16T01:50:09.546Z,7.69
2017-11-16T01:51:13.902Z,7.68
2017-11-16T01:52:17.488Z,7.57
2017-11-16T01:53:21.403Z,7.33
2017-11-16T01:54:30.180Z,7.48
2017-11-16T01:55:33.701Z,7.49
2017-11-16T01:56:37.264Z,7.60
2017-11-16T01:57:40.842Z,7.76
2017-11-16T01:58:44.622Z,7.95
2017-11-16T01:59:48.525Z,7.93
2017-11-16T02:15:50.099Z,6.58
2017-11-16T02:16:53.827Z,6.90
2017-11-16T02:17:57.526Z,6.99
2017-11-16T02:19:01.308Z,7.18
2017-11-16T02:20:05.293Z,7.22
2017-11-16T02:21:09.401Z,7.43
2017-11-16T02:22:13.323Z,7.44
2017-11-16T02:23:17.097Z,7.39
2017-11-16T02:24:20.892Z,7.37
2017-11-16T02:25:24.648Z,7.27
2017-11-16T02:26:28.857Z,7.33
2017-11-16T02:27:32.931Z,7.31
2017-11-16T02:28:36.714Z,7.26
2017-11-16T02:29:40.635Z,7.36
2017-11-16T02:30:44.258Z,7.40
2017-11-16T02:31:47.921Z,7.44
2017-11-16T02:32:51.583Z,7.15
2017-11-16T02:33:55.525Z,7.18
2017-11-16T02:34:59.191Z,7.16
2017-11-16T02:36:02.856Z,7.17
2017-11-16T02:37:06.459Z,7.11
2017-11-16T02:38:10.097Z,7.25
2017-11-16T02:39:13.782Z,7.26
2017-11-16T02:40:17.781Z,7.30
2017-11-16T02:41:21.496Z,7.27
2017-11-16T02:42:25.174Z,7.15
2017-11-16T02:43:28.846Z,7.16
2017-11-16T02:44:32.614Z,7.23
2017-11-16T02:45:36.285Z,7.27
2017-11-16T02:46:40.220Z,7.19
2017-11-16T02:47:44.005Z,7.21
2017-11-16T02:48:47.693Z,7.21
2017-11-16T02:49:51.373Z,7.12
2017-11-16T02:50:55.139Z,7.09
2017-11-16T02:51:58.923Z,7.09
2017-11-16T02:53:02.981Z,7.13
2017-11-16T02:54:06.738Z,7.25
2017-11-16T02:55:10.463Z,7.23
2017-11-16T02:56:14.239Z,7.12
2017-11-16T02:57:18.342Z,7.06
2017-11-16T02:58:22.114Z,7.09
2017-11-16T02:59:26.238Z,7.44
2017-11-16T03:00:30.046Z,7.55
2017-11-16T03:01:33.836Z,7.45
2017-11-16T03:02:37.629Z,7.26
2017-11-16T03:03:41.345Z,7.18
2017-11-16T03:04:44.974Z,7.09
2017-11-16T03:05:48.904Z,7.13
2017-11-16T03:06:52.548Z,7.08
2017-11-16T03:07:56.193Z,7.09
2017-11-16T03:08:59.942Z,7.09
2017-11-16T03:10:03.871Z,6.93
2017-11-16T03:11:07.687Z,6.97
2017-11-16T03:12:11.626Z,6.83
2017-11-16T03:13:15.246Z,6.92
2017-11-16T03:14:19.445Z,6.86
2017-11-16T03:15:23.069Z,6.73
2017-11-16T03:16:26.753Z,6.77
2017-11-16T03:17:30.402Z,6.80
2017-11-16T03:18:34.308Z,6.88
2017-11-16T03:19:37.934Z,6.97
2017-11-16T03:20:41.599Z,6.84
2017-11-16T03:21:45.374Z,7.02
2017-11-16T03:22:49.183Z,7.01
2017-11-16T03:23:52.971Z,7.06
2017-11-16T03:24:57.092Z,7.06
2017-11-16T03:26:00.881Z,7.12
2017-11-16T03:27:04.670Z,7.17
2017-11-16T03:28:08.452Z,7.09
2017-11-16T03:29:12.207Z,7.03
2017-11-16T03:30:15.964Z,7.00
2017-11-16T03:31:20.002Z,6.84
2017-11-16T03:32:23.629Z,6.97
2017-11-16T03:33:27.269Z,7.15
2017-11-16T03:34:31.798Z,7.10
2017-11-16T03:35:35.558Z,6.98
2017-11-16T03:36:39.433Z,6.79
2017-11-16T03:37:44.133Z,6.81
2017-11-16T03:38:47.971Z,6.97
2017-11-16T03:39:51.772Z,7.06
2017-11-16T03:40:55.587Z,7.04
2017-11-16T03:41:59.344Z,7.15
2017-11-16T03:43:03.013Z,6.96
2017-11-16T03:44:06.970Z,6.98
2017-11-16T03:45:10.644Z,6.90
2017-11-16T03:46:14.317Z,6.88
2017-11-16T03:47:18.021Z,6.73
2017-11-16T03:48:21.716Z,6.50
2017-11-16T03:49:25.384Z,6.63
2017-11-16T03:50:29.349Z,6.76
2017-11-16T03:51:33.022Z,6.81
2017-11-16T03:52:37.270Z,6.84
2017-11-16T03:53:41.006Z,6.79
2017-11-16T03:54:44.796Z,6.82
2017-11-16T03:55:48.641Z,6.76
2017-11-16T03:56:52.667Z,6.75
2017-11-16T03:57:56.434Z,6.78
2017-11-16T03:59:00.254Z,6.78
2017-11-16T04:00:04.044Z,6.80
2017-11-16T04:01:08.001Z,6.89
2017-11-16T04:02:11.787Z,6.86
2017-11-16T04:03:15.827Z,6.97
2017-11-16T04:04:19.681Z,6.85
2017-11-16T04:05:23.436Z,6.93
2017-11-16T04:06:27.202Z,6.80
2017-11-16T04:07:31.439Z,6.81
2017-11-16T04:08:35.212Z,6.94
2017-11-16T04:09:39.378Z,6.62
2017-11-16T04:10:43.127Z,6.72
2017-11-16T04:11:46.941Z,6.61
2017-11-16T04:12:50.831Z,6.75
2017-11-16T04:13:54.569Z,6.78
2017-11-16T04:14:58.351Z,6.67
2017-11-16T04:16:02.462Z,6.79
2017-11-16T04:17:06.317Z,6.74
2017-11-16T04:18:10.092Z,6.78
2017-11-16T04:19:13.877Z,6.73
2017-11-16T04:20:17.672Z,6.83
2017-11-16T04:21:21.472Z,6.86
2017-11-16T04:22:25.628Z,6.91
2017-11-16T04:23:29.404Z,6.99
2017-11-16T04:24:33.162Z,7.00
2017-11-16T04:25:36.972Z,7.00
2017-11-16T04:26:40.717Z,6.98
2017-11-16T04:27:44.536Z,6.73
2017-11-16T04:28:48.644Z,6.49
2017-11-16T04:29:52.440Z,6.52
2017-11-16T04:30:56.239Z,6.30
2017-11-16T04:32:00.041Z,6.32
2017-11-16T04:33:03.810Z,6.32
2017-11-16T04:34:07.537Z,6.37
2017-11-16T04:35:11.589Z,6.55
2017-11-16T04:36:15.369Z,6.43
2017-11-16T04:37:19.076Z,6.55
2017-11-16T04:38:22.809Z,6.39
2017-11-16T04:39:26.418Z,6.71
2017-11-16T04:40:30.040Z,6.74
2017-11-16T04:41:34.304Z,6.78
2017-11-16T04:42:39.313Z,6.84
2017-11-16T04:43:42.940Z,6.75
2017-11-16T04:44:46.569Z,6.50
2017-11-16T04:45:50.255Z,6.44
2017-11-16T04:46:54.017Z,6.66
2017-11-16T04:47:58.093Z,6.87
2017-11-16T04:49:01.914Z,6.88
2017-11-16T04:50:05.680Z,7.09
2017-11-16T04:51:09.934Z,7.22
2017-11-16T04:52:14.342Z,7.31
2017-11-16T04:53:18.128Z,7.43
2017-11-16T04:54:22.253Z,7.10
2017-11-16T04:55:26.074Z,6.98
2017-11-16T04:56:29.872Z,6.99
2017-11-16T04:57:33.749Z,7.11
2017-11-16T04:58:37.548Z,7.09
2017-11-16T04:59:41.302Z,6.89
2017-11-16T05:15:12.785Z,5.64
2017-11-16T05:16:16.563Z,6.00
2017-11-16T05:17:20.438Z,6.28
2017-11-16T05:18:24.216Z,6.33
2017-11-16T05:19:28.036Z,6.52
2017-11-16T05:20:32.171Z,6.58
2017-11-16T05:21:35.986Z,6.78
2017-11-16T05:22:39.756Z,6.98
2017-11-16T05:23:43.572Z,7.02
2017-11-16T05:24:47.392Z,6.99
2017-11-16T05:25:51.154Z,7.13
2017-11-16T05:26:55.260Z,6.99
2017-11-16T05:27:58.861Z,7.02
2017-11-16T05:29:02.497Z,6.99
2017-11-16T05:30:06.917Z,6.93
2017-11-16T05:31:10.761Z,6.93
2017-11-16T05:32:14.457Z,6.87
2017-11-16T05:33:18.400Z,6.81
2017-11-16T05:34:22.374Z,6.79
2017-11-16T05:35:26.098Z,6.88
2017-11-16T05:36:29.771Z,7.15
2017-11-16T05:37:33.420Z,7.33
2017-11-16T05:38:37.099Z,7.20
2017-11-16T05:39:41.608Z,7.12
2017-11-16T05:40:45.308Z,7.07
2017-11-16T05:41:49.107Z,6.83
2017-11-16T05:42:52.858Z,6.78
2017-11-16T05:43:56.623Z,6.75
2017-11-16T05:45:00.473Z,6.80
2017-11-16T05:46:04.731Z,6.86
2017-11-16T05:47:08.593Z,6.90
2017-11-16T05:48:12.380Z,6.86
2017-11-16T05:49:16.128Z,6.74
2017-11-16T05:50:20.027Z,6.75
2017-11-16T05:51:23.767Z,6.77
2017-11-16T05:52:27.898Z,6.78
2017-11-16T05:53:31.741Z,6.84
2017-11-16T05:54:35.531Z,6.89
2017-11-16T05:55:39.337Z,6.91
2017-11-16T05:56:43.098Z,6.94
2017-11-16T05:57:46.934Z,6.85
2017-11-16T05:58:51.028Z,6.69
2017-11-16T05:59:54.803Z,6.56
2017-11-16T06:00:58.583Z,6.55
2017-11-16T06:02:02.346Z,6.54
2017-11-16T06:03:06.179Z,6.73
2017-11-16T06:04:09.981Z,7.01
2017-11-16T06:05:14.487Z,7.24
2017-11-16T06:06:18.275Z,7.01
2017-11-16T06:07:22.113Z,6.88
2017-11-16T06:08:25.999Z,6.64
2017-11-16T06:09:29.783Z,6.63
2017-11-16T06:10:33.560Z,6.50
2017-11-16T06:11:38.496Z,6.60
2017-11-16T06:12:42.283Z,6.73
2017-11-16T06:13:46.161Z,6.84
2017-11-16T06:14:49.910Z,6.58
2017-11-16T06:15:54.574Z,6.65
2017-11-16T06:16:58.387Z,6.99
2017-11-16T06:18:02.411Z,6.98
2017-11-16T06:19:06.109Z,6.60
2017-11-16T06:20:09.834Z,6.79
2017-11-16T06:21:13.528Z,6.83
2017-11-16T06:22:17.409Z,6.87
2017-11-16T06:23:21.141Z,6.33
2017-11-16T06:24:25.228Z,6.69
2017-11-16T06:25:29.166Z,6.63
2017-11-16T06:26:32.942Z,6.64
2017-11-16T06:27:36.724Z,6.60
2017-11-16T06:28:40.533Z,6.64
2017-11-16T06:29:44.392Z,6.70
2017-11-16T06:30:48.627Z,6.59
2017-11-16T06:31:52.414Z,6.68
2017-11-16T06:32:56.266Z,6.75
2017-11-16T06:34:00.026Z,6.89
2017-11-16T06:35:03.730Z,6.73
2017-11-16T06:36:08.263Z,6.74
2017-11-16T06:37:12.336Z,6.84
2017-11-16T06:38:17.023Z,6.84
2017-11-16T06:39:20.727Z,6.67
2017-11-16T06:40:24.656Z,6.59
2017-11-16T06:41:28.583Z,6.60
2017-11-16T06:42:32.751Z,6.13
2017-11-16T06:43:37.048Z,6.75
2017-11-16T06:44:40.974Z,6.74
2017-11-16T06:45:44.823Z,6.85
2017-11-16T06:46:48.675Z,6.89
2017-11-16T06:47:52.550Z,6.89
2017-11-16T06:48:56.446Z,6.80
2017-11-16T06:50:00.863Z,6.76
2017-11-16T06:51:06.561Z,6.72
2017-11-16T06:52:10.465Z,6.53
2017-11-16T06:53:14.270Z,6.57
2017-11-16T06:54:19.044Z,6.02
2017-11-16T06:55:22.964Z,6.24
2017-11-16T06:56:27.205Z,6.15
2017-11-16T06:57:31.372Z,6.23
2017-11-16T06:58:35.183Z,6.39
2017-11-16T06:59:39.946Z,6.28
2017-11-16T07:00:44.025Z,6.47
2017-11-16T07:01:47.840Z,6.36
2017-11-16T07:02:52.331Z,6.35
2017-11-16T07:03:57.324Z,6.40
2017-11-16T07:05:02.059Z,6.04
2017-11-16T07:06:06.099Z,4.99
2017-11-16T07:07:11.598Z,6.38
2017-11-16T07:08:15.408Z,6.27
2017-11-16T07:09:20.135Z,6.30
2017-11-16T07:10:24.056Z,6.30
2017-11-16T07:11:27.931Z,6.09
2017-11-16T07:12:31.742Z,6.28
2017-11-16T07:13:35.543Z,6.25
2017-11-16T07:14:39.310Z,5.98
2017-11-16T07:15:43.473Z,6.03
2017-11-16T07:16:47.285Z,6.02
2017-11-16T07:17:51.051Z,5.84
2017-11-16T07:18:54.867Z,5.97
2017-11-16T07:19:58.662Z,6.02
2017-11-16T07:21:02.483Z,5.98
2017-11-16T07:22:06.879Z,6.03
2017-11-16T07:23:10.693Z,5.47
2017-11-16T07:24:14.360Z,5.39
2017-11-16T07:25:18.097Z,6.11
2017-11-16T07:26:21.825Z,6.11
2017-11-16T07:27:25.591Z,6.08
2017-11-16T07:28:29.573Z,5.95
2017-11-16T07:29:33.403Z,6.13
2017-11-16T07:30:37.255Z,6.22
2017-11-16T07:31:41.288Z,6.29
2017-11-16T07:32:45.136Z,6.31
2017-11-16T07:33:49.178Z,5.99
2017-11-16T07:34:54.034Z,6.04
2017-11-16T07:35:57.883Z,6.07
2017-11-16T07:37:01.631Z,6.20
2017-11-16T07:38:05.522Z,5.86
2017-11-16T07:39:09.250Z,6.00
2017-11-16T07:40:12.988Z,6.06
2017-11-16T07:41:17.083Z,5.81
2017-11-16T07:42:20.879Z,5.88
2017-11-16T07:43:24.707Z,6.03
2017-11-16T07:44:28.580Z,5.99
2017-11-16T07:45:32.437Z,6.04
2017-11-16T07:46:36.244Z,5.64
2017-11-16T07:47:40.719Z,6.01
2017-11-16T07:48:45.180Z,5.95
2017-11-16T07:49:49.211Z,6.00
2017-11-16T07:50:53.465Z,5.88
2017-11-16T07:51:57.486Z,6.12
2017-11-16T07:53:01.675Z,6.15
2017-11-16T07:54:05.926Z,6.21
2017-11-16T07:55:09.753Z,6.28
2017-11-16T07:56:13.763Z,5.88
2017-11-16T07:57:17.813Z,5.95
2017-11-16T07:58:21.663Z,6.03
2017-11-16T07:59:25.463Z,6.22
2017-11-16T08:00:29.759Z,6.26
2017-11-16T08:01:33.612Z,6.32
2017-11-16T08:02:37.432Z,6.34
2017-11-16T08:03:41.214Z,6.23
2017-11-16T08:04:47.064Z,6.22
2017-11-16T08:05:50.848Z,6.14
2017-11-16T08:06:55.048Z,5.88
2017-11-16T08:07:58.860Z,6.12
2017-11-16T08:09:02.658Z,6.35
2017-11-16T08:10:06.450Z,6.33
2017-11-16T08:11:10.252Z,6.35
2017-11-16T08:12:14.100Z,6.44
2017-11-16T08:13:18.211Z,6.46
2017-11-16T08:14:22.023Z,6.75
2017-11-16T08:30:03.296Z,4.46
2017-11-16T08:31:07.114Z,5.11
2017-11-16T08:32:11.153Z,5.41
2017-11-16T08:33:14.971Z,5.73
2017-11-16T08:34:18.815Z,5.19
2017-11-16T08:35:23.066Z,5.70
2017-11-16T08:36:26.920Z,5.77
2017-11-16T08:37:30.740Z,5.72
2017-11-16T08:38:34.570Z,5.93
2017-11-16T08:39:38.401Z,6.10
2017-11-16T08:40:42.232Z,6.04
2017-11-16T08:41:46.346Z,5.99
2017-11-16T08:42:50.068Z,5.87
2017-11-16T08:43:53.850Z,5.58
2017-11-16T08:44:57.607Z,5.90
2017-11-16T08:46:01.330Z,5.89
2017-11-16T08:47:05.105Z,5.88
2017-11-16T08:48:09.903Z,5.72
2017-11-16T08:49:13.748Z,5.57
2017-11-16T08:50:17.647Z,5.57
2017-11-16T08:51:21.395Z,5.51
2017-11-16T08:52:25.343Z,5.61
2017-11-16T08:53:29.085Z,5.69
2017-11-16T08:54:33.203Z,5.87
2017-11-16T08:55:36.971Z,5.94
2017-11-16T08:56:40.799Z,5.98
2017-11-16T08:57:44.648Z,5.76
2017-11-16T08:58:48.752Z,5.61
2017-11-16T08:59:52.551Z,5.83
2017-11-16T09:00:56.849Z,6.02
2017-11-16T09:02:00.765Z,6.01
2017-11-16T09:03:04.932Z,5.94
2017-11-16T09:04:08.840Z,5.46
2017-11-16T09:05:12.956Z,5.69
2017-11-16T09:06:16.909Z,5.99
2017-11-16T09:07:21.108Z,5.98
2017-11-16T09:08:24.937Z,5.94
2017-11-16T09:09:28.767Z,6.04
2017-11-16T09:10:32.661Z,5.98
2017-11-16T09:11:37.055Z,5.83
2017-11-16T09:12:40.858Z,5.80
2017-11-16T09:13:45.049Z,5.89
2017-11-16T09:14:48.850Z,5.92
2017-11-16T09:15:52.677Z,5.60
2017-11-16T09:16:58.359Z,5.93
2017-11-16T09:18:02.757Z,5.88
2017-11-16T09:19:06.916Z,5.98
2017-11-16T09:20:11.417Z,5.73
2017-11-16T09:21:15.380Z,6.22
2017-11-16T09:22:19.258Z,6.10
2017-11-16T09:23:23.673Z,5.95
2017-11-16T09:24:27.471Z,6.01
2017-11-16T09:25:32.054Z,5.99
2017-11-16T09:26:36.357Z,5.92
2017-11-16T09:27:40.179Z,5.90
2017-11-16T09:28:44.176Z,5.99
2017-11-16T09:29:48.044Z,5.92
2017-11-16T09:30:51.844Z,5.90
2017-11-16T09:31:55.858Z,6.00
2017-11-16T09:33:00.076Z,5.97
2017-11-16T09:34:04.293Z,5.95
2017-11-16T09:35:08.124Z,6.19
2017-11-16T09:36:11.939Z,6.10
2017-11-16T09:37:15.747Z,6.10
2017-11-16T09:38:19.763Z,6.22
2017-11-16T09:39:24.009Z,6.55
2017-11-16T09:40:27.840Z,6.37
2017-11-16T09:41:31.731Z,6.53
2017-11-16T09:42:35.572Z,6.40
2017-11-16T09:43:39.222Z,5.93
2017-11-16T09:44:42.925Z,6.35
2017-11-16T09:45:46.974Z,6.34
2017-11-16T09:46:50.759Z,6.44
2017-11-16T09:47:54.613Z,6.63
2017-11-16T09:48:58.477Z,6.58
2017-11-16T09:50:02.279Z,6.71
2017-11-16T09:51:06.036Z,6.66
2017-11-16T09:52:11.706Z,6.76
2017-11-16T09:53:15.568Z,6.65
2017-11-16T09:54:19.526Z,6.14
2017-11-16T09:55:23.429Z,6.39
2017-11-16T09:56:27.410Z,6.44
2017-11-16T09:57:31.259Z,6.53
2017-11-16T09:58:35.370Z,6.43
2017-11-16T09:59:39.203Z,6.71
2017-11-16T10:00:43.109Z,6.80
2017-11-16T10:01:46.934Z,6.54
2017-11-16T10:02:50.773Z,6.52
2017-11-16T10:03:54.876Z,6.43
2017-11-16T10:04:58.717Z,6.27
2017-11-16T10:06:07.976Z,6.78
2017-11-16T10:07:11.875Z,6.93
2017-11-16T10:08:23.137Z,7.09
2017-11-16T10:09:39.466Z,7.20
2017-11-16T10:10:43.381Z,7.29
2017-11-16T10:11:47.200Z,6.74
2017-11-16T10:12:51.023Z,7.12
2017-11-16T10:13:54.884Z,7.05
2017-11-16T10:14:58.724Z,7.16
2017-11-16T10:16:03.069Z,6.71
2017-11-16T10:17:06.882Z,7.30
2017-11-16T10:18:11.176Z,7.32
2017-11-16T10:19:15.054Z,7.12
2017-11-16T10:20:18.937Z,7.07
2017-11-16T10:21:22.708Z,6.89
2017-11-16T10:22:26.918Z,6.88
2017-11-16T10:23:30.771Z,6.93
2017-11-16T10:24:34.716Z,7.09
2017-11-16T10:25:38.562Z,7.15
2017-11-16T10:26:42.551Z,7.21
2017-11-16T10:27:46.399Z,7.19
2017-11-16T10:28:50.527Z,6.98
2017-11-16T10:29:54.598Z,6.58
2017-11-16T10:30:58.418Z,7.14
2017-11-16T10:32:02.594Z,6.87
2017-11-16T10:33:06.435Z,6.65
2017-11-16T10:34:10.413Z,6.74
2017-11-16T10:35:14.695Z,6.71
2017-11-16T10:36:18.548Z,6.88
2017-11-16T10:37:22.346Z,7.04
2017-11-16T10:38:26.150Z,7.15
2017-11-16T10:39:30.146Z,7.18
2017-11-16T10:40:34.101Z,7.65
2017-11-16T10:41:38.538Z,7.67
2017-11-16T10:42:42.345Z,7.74
2017-11-16T10:43:46.403Z,7.95
2017-11-16T10:44:50.236Z,8.05
2017-11-16T10:45:54.176Z,7.93
2017-11-16T10:46:58.072Z,7.26
2017-11-16T10:48:02.241Z,7.33
2017-11-16T10:49:06.069Z,6.81
2017-11-16T10:50:09.897Z,6.63
2017-11-16T10:51:13.703Z,6.70
2017-11-16T10:52:17.616Z,6.82
2017-11-16T10:53:21.474Z,6.50
2017-11-16T10:54:25.621Z,6.45
2017-11-16T10:55:29.468Z,6.59
2017-11-16T10:56:33.274Z,6.57
2017-11-16T10:57:37.122Z,6.86
2017-11-16T10:58:51.770Z,7.08
2017-11-16T11:15:20.094Z,5.93
2017-11-16T11:16:24.579Z,6.26
2017-11-16T11:17:28.479Z,6.57
2017-11-16T11:18:32.324Z,6.46
2017-11-16T11:19:41.238Z,6.79
2017-11-16T11:20:46.433Z,6.73
2017-11-16T11:21:51.255Z,6.24
2017-11-16T11:22:57.621Z,6.68
2017-11-16T11:24:02.316Z,6.55
2017-11-16T11:25:07.213Z,6.58
2017-11-16T11:26:11.476Z,6.92
2017-11-16T11:27:15.358Z,6.80
2017-11-16T11:28:19.119Z,6.62
2017-11-16T11:29:22.966Z,6.71
2017-11-16T11:30:26.934Z,6.81
2017-11-16T11:31:30.778Z,6.81
2017-11-16T11:32:35.062Z,6.73
2017-11-16T11:33:38.937Z,6.72
2017-11-16T11:34:42.816Z,6.98
2017-11-16T11:35:46.660Z,6.81
2017-11-16T11:36:50.533Z,6.76
2017-11-16T11:37:54.365Z,6.57
2017-11-16T11:38:58.917Z,6.50
2017-11-16T11:40:02.914Z,7.02
2017-11-16T11:41:06.724Z,6.77
2017-11-16T11:42:10.533Z,7.20
2017-11-16T11:43:14.431Z,7.16
2017-11-16T11:44:18.264Z,6.69
2017-11-16T11:45:22.573Z,7.26
2017-11-16T11:46:26.546Z,7.35
2017-11-16T11:47:30.443Z,7.21
2017-11-16T11:48:34.243Z,7.42
2017-11-16T11:49:38.090Z,7.52
2017-11-16T11:50:42.552Z,7.34
2017-11-16T11:51:46.700Z,7.14
2017-11-16T11:52:50.667Z,7.11
2017-11-16T11:53:54.640Z,7.02
2017-11-16T11:54:58.448Z,7.09
2017-11-16T11:56:02.303Z,7.33
2017-11-16T11:57:06.168Z,7.19
2017-11-16T11:58:10.925Z,7.32
2017-11-16T11:59:14.733Z,7.52
2017-11-16T12:00:18.854Z,7.87
2017-11-16T12:01:23.399Z,8.09
2017-11-16T12:02:28.219Z,8.42
2017-11-16T12:03:33.110Z,8.03
2017-11-16T12:04:37.664Z,8.25
2017-11-16T12:05:41.617Z,8.34
2017-11-16T12:06:47.603Z,8.35
2017-11-16T12:07:53.991Z,8.29
2017-11-16T12:08:57.731Z,8.19
2017-11-16T12:10:03.242Z,8.32
2017-11-16T12:11:07.958Z,8.27
2017-11-16T12:12:11.748Z,8.35
2017-11-16T12:13:16.300Z,8.36
2017-11-16T12:14:20.114Z,8.15
2017-11-16T12:15:23.921Z,8.02
2017-11-16T12:16:28.074Z,7.82
2017-11-16T12:17:32.385Z,7.75
2017-11-16T12:18:36.769Z,7.85
2017-11-16T12:19:40.626Z,7.88
2017-11-16T12:20:44.902Z,6.97
2017-11-16T12:21:48.592Z,8.32
2017-11-16T12:22:52.280Z,8.48
2017-11-16T12:23:56.980Z,8.82
2017-11-16T12:25:00.670Z,8.70
2017-11-16T12:26:04.430Z,8.81
2017-11-16T12:27:08.269Z,8.92
2017-11-16T12:28:12.220Z,8.87
2017-11-16T12:29:16.109Z,9.23
2017-11-16T12:30:20.424Z,9.36
2017-11-16T12:31:24.293Z,9.21
2017-11-16T12:32:28.155Z,8.90
2017-11-16T12:33:32.043Z,8.34
2017-11-16T12:34:35.897Z,8.70
2017-11-16T12:35:39.851Z,8.90
2017-11-16T12:36:43.974Z,9.36
2017-11-16T12:37:47.933Z,9.38
2017-11-16T12:38:52.902Z,9.08
2017-11-16T12:39:56.774Z,9.16
2017-11-16T12:41:00.647Z,9.18
2017-11-16T12:42:04.536Z,9.48
2017-11-16T12:43:08.843Z,9.58
2017-11-16T12:44:13.280Z,9.38
2017-11-16T12:45:17.137Z,9.46
2017-11-16T12:46:20.880Z,9.38
2017-11-16T12:47:25.374Z,8.79
2017-11-16T12:48:29.061Z,8.75
2017-11-16T12:49:33.112Z,9.39
2017-11-16T12:50:37.628Z,9.93
2017-11-16T12:51:41.779Z,10.07
2017-11-16T12:52:45.955Z,9.61
2017-11-16T12:53:49.840Z,9.72
2017-11-16T12:54:54.116Z,9.78
2017-11-16T12:55:57.984Z,9.89
2017-11-16T12:57:01.809Z,10.04
2017-11-16T12:58:05.624Z,9.68
2017-11-16T12:59:09.535Z,9.77
2017-11-16T13:00:13.339Z,9.99
2017-11-16T13:01:19.220Z,9.87
2017-11-16T13:02:23.360Z,10.01
2017-11-16T13:03:27.264Z,9.66
2017-11-16T13:04:31.998Z,9.77
2017-11-16T13:05:35.790Z,9.64
2017-11-16T13:06:39.590Z,9.62
2017-11-16T13:07:43.824Z,9.59
2017-11-16T13:08:47.780Z,9.53
2017-11-16T13:09:51.600Z,9.16
2017-11-16T13:10:55.920Z,9.54
2017-11-16T13:11:59.767Z,9.41
2017-11-16T13:13:03.626Z,9.25
2017-11-16T13:14:07.842Z,9.21
2017-11-16T13:15:11.720Z,9.26
2017-11-16T13:16:15.567Z,9.02
2017-11-16T13:17:19.411Z,9.00
2017-11-16T13:18:23.338Z,9.14
2017-11-16T13:19:27.471Z,9.24
2017-11-16T13:20:31.833Z,9.28
2017-11-16T13:21:35.678Z,9.30
2017-11-16T13:22:39.760Z,9.15
2017-11-16T13:23:43.562Z,9.14
2017-11-16T13:24:47.437Z,9.17
2017-11-16T13:25:51.679Z,9.14
2017-11-16T13:26:55.509Z,9.01
2017-11-16T13:27:59.232Z,9.05
2017-11-16T13:29:03.016Z,9.04
2017-11-16T13:30:06.936Z,9.35
2017-11-16T13:31:10.794Z,9.59
2017-11-16T13:32:14.609Z,9.72
2017-11-16T13:33:18.480Z,9.38
2017-11-16T13:34:22.341Z,9.40
2017-11-16T13:35:26.180Z,9.81
2017-11-16T13:36:29.931Z,9.82
2017-11-16T13:37:33.900Z,9.69
2017-11-16T13:38:37.632Z,9.81
2017-11-16T13:39:41.342Z,9.52
2017-11-16T13:40:45.154Z,9.61
2017-11-16T13:41:48.909Z,8.27
2017-11-16T13:42:52.671Z,8.07
2017-11-16T13:43:56.826Z,8.03
2017-11-16T13:45:03.739Z,8.71
2017-11-16T13:46:07.607Z,8.86
2017-11-16T13:47:11.390Z,8.71
2017-11-16T13:48:15.195Z,8.74
2017-11-16T13:49:19.013Z,8.72
2017-11-16T13:50:23.118Z,8.55
2017-11-16T13:51:27.053Z,8.61
2017-11-16T13:52:30.850Z,8.26
2017-11-16T13:53:35.064Z,8.64
2017-11-16T13:54:38.895Z,8.85
2017-11-16T13:55:42.786Z,8.75
2017-11-16T13:56:47.378Z,9.01
2017-11-16T14:16:23.623Z,7.74
2017-11-16T14:17:27.375Z,8.19
2017-11-16T14:18:31.231Z,8.45
2017-11-16T14:19:43.443Z,8.24
2017-11-16T14:20:47.543Z,7.93
2017-11-16T14:21:51.376Z,8.44
2017-11-16T14:22:55.496Z,8.15
2017-11-16T14:23:59.368Z,8.43
2017-11-16T14:25:03.167Z,8.67
2017-11-16T14:26:06.990Z,8.88
2017-11-16T14:27:10.916Z,9.08
2017-11-16T14:28:16.156Z,9.19
2017-11-16T14:29:20.388Z,9.35
2017-11-16T14:30:24.187Z,9.40
2017-11-16T14:31:27.945Z,9.36
2017-11-16T14:32:31.724Z,9.34
2017-11-16T14:33:35.499Z,8.85
2017-11-16T14:34:39.290Z,9.19
2017-11-16T14:35:43.487Z,9.29
2017-11-16T14:36:47.870Z,8.38
2017-11-16T14:37:51.647Z,8.95
2017-11-16T14:38:55.487Z,8.57
2017-11-16T14:39:59.190Z,8.83
2017-11-16T14:41:02.955Z,8.70
2017-11-16T14:42:07.138Z,9.19
2017-11-16T14:43:10.876Z,9.03
2017-11-16T14:44:14.618Z,8.87
2017-11-16T14:45:18.435Z,8.26
2017-11-16T14:46:22.206Z,8.61
2017-11-16T14:47:25.974Z,8.49
2017-11-16T14:48:30.247Z,8.41
2017-11-16T14:49:34.027Z,8.51
2017-11-16T14:50:37.760Z,8.60
2017-11-16T14:51:41.546Z,8.57
2017-11-16T14:52:45.255Z,8.58
2017-11-16T14:53:48.934Z,8.61
2017-11-16T14:54:53.177Z,8.87
2017-11-16T14:55:57.020Z,8.75
2017-11-16T14:57:00.825Z,8.51
2017-11-16T14:58:04.604Z,8.43
2017-11-16T14:59:08.344Z,8.54
2017-11-16T15:00:12.094Z,8.04
2017-11-16T15:01:16.167Z,7.80
2017-11-16T15:02:19.908Z,8.08
2017-11-16T15:03:23.746Z,8.07
2017-11-16T15:04:27.460Z,8.35
2017-11-16T15:05:32.035Z,8.46
2017-11-16T15:06:35.769Z,8.64
2017-11-16T15:07:40.060Z,8.57
2017-11-16T15:08:43.821Z,8.76
2017-11-16T15:09:47.839Z,8.38
2017-11-16T15:10:51.544Z,8.31
2017-11-16T15:11:55.296Z,7.91
2017-11-16T15:12:59.028Z,7.71
2017-11-16T15:14:02.900Z,8.09
2017-11-16T15:15:06.968Z,8.01
2017-11-16T15:16:10.765Z,7.82
2017-11-16T15:17:14.519Z,8.14
2017-11-16T15:18:18.320Z,8.14
2017-11-16T15:19:22.592Z,8.50
2017-11-16T15:20:26.333Z,8.46
2017-11-16T15:21:30.065Z,8.43
2017-11-16T15:22:34.188Z,8.29
2017-11-16T15:23:37.968Z,8.53
2017-11-16T15:24:41.797Z,8.48
2017-11-16T15:25:45.896Z,8.23
2017-11-16T15:26:49.638Z,8.67
2017-11-16T15:27:54.073Z,8.61
2017-11-16T15:28:58.018Z,8.51
2017-11-16T15:30:01.813Z,8.45